sensor_id;sensor_type;location;lat;lon;timestamp;P1;P2;P0
66111;PMS7003;52890;52.490;4.976;2023-07-31T00:00:37;0;0;
66111;PMS7003;52890;52.490;4.976;2023-07-31T00:01:36;1;1;
66111;PMS7003;52890;52.490;4.976;2023-07-31T00:02:36;0;0;
66111;PMS7003;52890;52.490;4.976;2023-07-31T00:03:36;1;1;
66111;PMS7003;52890;52.490;4.976;2023-07-31T00:04:36;0;0;
66111;PMS7003;52890;52.490;4.976;2023-07-31T00:05:36;0;0;
66111;PMS7003;52890;52.490;4.976;2023-07-31T00:06:36;0;0;
66111;PMS7003;52890;52.490;4.976;2023-07-31T00:07:36;0;0;
66111;PMS7003;52890;52.490;4.976;2023-07-31T00:08:36;0;0;
66111;PMS7003;52890;52.490;4.976;2023-07-31T00:09:36;0;0;
66111;PMS7003;52890;52.490;4.976;2023-07-31T00:10:37;0;0;
66111;PMS7003;52890;52.490;4.976;2023-07-31T00:11:36;1;1;
66111;PMS7003;52890;52.490;4.976;2023-07-31T00:12:37;0;0;
66111;PMS7003;52890;52.490;4.976;2023-07-31T00:13:36;1;1;
66111;PMS7003;52890;52.490;4.976;2023-07-31T00:14:36;0;0;
66111;PMS7003;52890;52.490;4.976;2023-07-31T00:15:36;0;0;
66111;PMS7003;52890;52.490;4.976;2023-07-31T00:16:36;0;0;
66111;PMS7003;52890;52.490;4.976;2023-07-31T00:17:37;1;1;
66111;PMS7003;52890;52.490;4.976;2023-07-31T00:18:37;1;1;
66111;PMS7003;52890;52.490;4.976;2023-07-31T00:19:36;1;1;
66111;PMS7003;52890;52.490;4.976;2023-07-31T00:20:36;1;1;
66111;PMS7003;52890;52.490;4.976;2023-07-31T00:21:36;1;1;
66111;PMS7003;52890;52.490;4.976;2023-07-31T00:22:36;3;3;
66111;PMS7003;52890;52.490;4.976;2023-07-31T00:23:37;0;0;
66111;PMS7003;52890;52.490;4.976;2023-07-31T00:24:36;1;1;
66111;PMS7003;52890;52.490;4.976;2023-07-31T00:25:36;1;1;
66111;PMS7003;52890;52.490;4.976;2023-07-31T00:26:36;0;0;
66111;PMS7003;52890;52.490;4.976;2023-07-31T00:27:36;1;1;
66111;PMS7003;52890;52.490;4.976;2023-07-31T00:28:36;0;0;
66111;PMS7003;52890;52.490;4.976;2023-07-31T00:29:36;0;0;
66111;PMS7003;52890;52.490;4.976;2023-07-31T00:30:36;0;0;
66111;PMS7003;52890;52.490;4.976;2023-07-31T00:31:37;2;2;
66111;PMS7003;52890;52.490;4.976;2023-07-31T00:32:36;1;1;
66111;PMS7003;52890;52.490;4.976;2023-07-31T00:33:37;1;1;
66111;PMS7003;52890;52.490;4.976;2023-07-31T00:34:36;0;0;
66111;PMS7003;52890;52.490;4.976;2023-07-31T00:35:36;1;1;
66111;PMS7003;52890;52.490;4.976;2023-07-31T00:36:36;1;1;
66111;PMS7003;52890;52.490;4.976;2023-07-31T00:37:36;0;0;
66111;PMS7003;52890;52.490;4.976;2023-07-31T00:38:36;2;2;
66111;PMS7003;52890;52.490;4.976;2023-07-31T00:39:37;1;1;
66111;PMS7003;52890;52.490;4.976;2023-07-31T00:40:37;1;1;
66111;PMS7003;52890;52.490;4.976;2023-07-31T00:41:36;1;1;
66111;PMS7003;52890;52.490;4.976;2023-07-31T00:42:36;1;1;
66111;PMS7003;52890;52.490;4.976;2023-07-31T00:43:36;2;2;
66111;PMS7003;52890;52.490;4.976;2023-07-31T00:44:37;1;1;
66111;PMS7003;52890;52.490;4.976;2023-07-31T00:45:36;1;1;
66111;PMS7003;52890;52.490;4.976;2023-07-31T00:46:36;1;1;
66111;PMS7003;52890;52.490;4.976;2023-07-31T00:47:36;3;3;
66111;PMS7003;52890;52.490;4.976;2023-07-31T00:48:36;1;1;
66111;PMS7003;52890;52.490;4.976;2023-07-31T00:49:36;1;1;
66111;PMS7003;52890;52.490;4.976;2023-07-31T00:50:36;2;2;
66111;PMS7003;52890;52.490;4.976;2023-07-31T00:51:36;1;1;
66111;PMS7003;52890;52.490;4.976;2023-07-31T00:52:37;2;2;
66111;PMS7003;52890;52.490;4.976;2023-07-31T00:53:36;1;1;
66111;PMS7003;52890;52.490;4.976;2023-07-31T00:54:36;2;2;
66111;PMS7003;52890;52.490;4.976;2023-07-31T00:55:36;0;0;
66111;PMS7003;52890;52.490;4.976;2023-07-31T00:56:36;0;0;
66111;PMS7003;52890;52.490;4.976;2023-07-31T00:57:37;1;1;
66111;PMS7003;52890;52.490;4.976;2023-07-31T00:58:36;0;0;
66111;PMS7003;52890;52.490;4.976;2023-07-31T00:59:36;2;2;
66111;PMS7003;52890;52.490;4.976;2023-07-31T01:00:36;2;2;
66111;PMS7003;52890;52.490;4.976;2023-07-31T01:01:36;2;2;
66111;PMS7003;52890;52.490;4.976;2023-07-31T01:02:36;1;1;
66111;PMS7003;52890;52.490;4.976;2023-07-31T01:03:36;1;1;
66111;PMS7003;52890;52.490;4.976;2023-07-31T01:04:36;1;1;
66111;PMS7003;52890;52.490;4.976;2023-07-31T01:05:39;1;1;
66111;PMS7003;52890;52.490;4.976;2023-07-31T01:06:38;2;2;
66111;PMS7003;52890;52.490;4.976;2023-07-31T01:07:40;0;0;
66111;PMS7003;52890;52.490;4.976;2023-07-31T01:08:37;3;3;
66111;PMS7003;52890;52.490;4.976;2023-07-31T01:09:37;0;0;
66111;PMS7003;52890;52.490;4.976;2023-07-31T01:10:38;1;1;
66111;PMS7003;52890;52.490;4.976;2023-07-31T01:11:38;1;1;
66111;PMS7003;52890;52.490;4.976;2023-07-31T01:12:36;6;6;
66111;PMS7003;52890;52.490;4.976;2023-07-31T01:13:36;1;1;
66111;PMS7003;52890;52.490;4.976;2023-07-31T02:22:36;5;5;
66111;PMS7003;52890;52.490;4.976;2023-07-31T02:23:36;8;8;
66111;PMS7003;52890;52.490;4.976;2023-07-31T02:24:37;3;3;
66111;PMS7003;52890;52.490;4.976;2023-07-31T02:25:36;6;6;
66111;PMS7003;52890;52.490;4.976;2023-07-31T02:26:36;2;2;
66111;PMS7003;52890;52.490;4.976;2023-07-31T02:27:37;2;2;
66111;PMS7003;52890;52.490;4.976;2023-07-31T02:28:36;6;6;
66111;PMS7003;52890;52.490;4.976;2023-07-31T02:29:36;3;3;
66111;PMS7003;52890;52.490;4.976;2023-07-31T02:30:37;3;3;
66111;PMS7003;52890;52.490;4.976;2023-07-31T02:31:36;4;4;
66111;PMS7003;52890;52.490;4.976;2023-07-31T02:32:36;6;6;
66111;PMS7003;52890;52.490;4.976;2023-07-31T02:33:36;2;2;
66111;PMS7003;52890;52.490;4.976;2023-07-31T02:34:36;2;2;
66111;PMS7003;52890;52.490;4.976;2023-07-31T02:35:36;5;5;
66111;PMS7003;52890;52.490;4.976;2023-07-31T02:36:36;3;3;
66111;PMS7003;52890;52.490;4.976;2023-07-31T02:37:36;5;5;
66111;PMS7003;52890;52.490;4.976;2023-07-31T02:38:36;5;5;
66111;PMS7003;52890;52.490;4.976;2023-07-31T02:39:36;8;8;
66111;PMS7003;52890;52.490;4.976;2023-07-31T02:40:37;6;8;
66111;PMS7003;52890;52.490;4.976;2023-07-31T02:41:36;4;4;
66111;PMS7003;52890;52.490;4.976;2023-07-31T02:42:36;4;4;
66111;PMS7003;52890;52.490;4.976;2023-07-31T02:43:37;10;10;
66111;PMS7003;52890;52.490;4.976;2023-07-31T02:44:36;2;2;
66111;PMS7003;52890;52.490;4.976;2023-07-31T02:45:36;6;6;
66111;PMS7003;52890;52.490;4.976;2023-07-31T02:46:36;5;5;
66111;PMS7003;52890;52.490;4.976;2023-07-31T02:47:36;5;5;
66111;PMS7003;52890;52.490;4.976;2023-07-31T02:48:36;12;12;
66111;PMS7003;52890;52.490;4.976;2023-07-31T02:49:36;4;4;
66111;PMS7003;52890;52.490;4.976;2023-07-31T02:50:36;6;6;
66111;PMS7003;52890;52.490;4.976;2023-07-31T02:51:36;3;3;
66111;PMS7003;52890;52.490;4.976;2023-07-31T02:52:37;5;5;
66111;PMS7003;52890;52.490;4.976;2023-07-31T02:53:36;3;3;
66111;PMS7003;52890;52.490;4.976;2023-07-31T02:54:37;5;5;
66111;PMS7003;52890;52.490;4.976;2023-07-31T02:55:37;2;2;
66111;PMS7003;52890;52.490;4.976;2023-07-31T02:56:36;5;5;
66111;PMS7003;52890;52.490;4.976;2023-07-31T02:57:36;5;5;
66111;PMS7003;52890;52.490;4.976;2023-07-31T02:58:37;3;3;
66111;PMS7003;52890;52.490;4.976;2023-07-31T02:59:36;4;4;
66111;PMS7003;52890;52.490;4.976;2023-07-31T03:00:41;5;5;
66111;PMS7003;52890;52.490;4.976;2023-07-31T03:01:37;3;3;
66111;PMS7003;52890;52.490;4.976;2023-07-31T03:02:37;1;1;
66111;PMS7003;52890;52.490;4.976;2023-07-31T03:03:37;3;3;
66111;PMS7003;52890;52.490;4.976;2023-07-31T03:04:36;1;1;
66111;PMS7003;52890;52.490;4.976;2023-07-31T03:05:37;3;3;
66111;PMS7003;52890;52.490;4.976;2023-07-31T03:06:37;4;4;
66111;PMS7003;52890;52.490;4.976;2023-07-31T03:07:36;6;6;
66111;PMS7003;52890;52.490;4.976;2023-07-31T03:08:37;5;5;
66111;PMS7003;52890;52.490;4.976;2023-07-31T03:09:36;4;4;
66111;PMS7003;52890;52.490;4.976;2023-07-31T03:10:37;5;5;
66111;PMS7003;52890;52.490;4.976;2023-07-31T03:11:36;4;4;
66111;PMS7003;52890;52.490;4.976;2023-07-31T03:12:37;4;4;
66111;PMS7003;52890;52.490;4.976;2023-07-31T03:13:36;5;5;
66111;PMS7003;52890;52.490;4.976;2023-07-31T03:14:37;6;6;
66111;PMS7003;52890;52.490;4.976;2023-07-31T03:15:36;5;5;
66111;PMS7003;52890;52.490;4.976;2023-07-31T03:16:37;5;5;
66111;PMS7003;52890;52.490;4.976;2023-07-31T03:17:37;4;4;
66111;PMS7003;52890;52.490;4.976;2023-07-31T03:18:37;4;4;
66111;PMS7003;52890;52.490;4.976;2023-07-31T03:19:36;8;10;
66111;PMS7003;52890;52.490;4.976;2023-07-31T03:20:36;4;4;
66111;PMS7003;52890;52.490;4.976;2023-07-31T03:21:36;4;4;
66111;PMS7003;52890;52.490;4.976;2023-07-31T03:22:37;2;2;
66111;PMS7003;52890;52.490;4.976;2023-07-31T03:23:37;5;5;
66111;PMS7003;52890;52.490;4.976;2023-07-31T03:24:37;4;4;
66111;PMS7003;52890;52.490;4.976;2023-07-31T03:25:37;3;3;
66111;PMS7003;52890;52.490;4.976;2023-07-31T03:26:36;3;3;
66111;PMS7003;52890;52.490;4.976;2023-07-31T03:27:36;4;4;
66111;PMS7003;52890;52.490;4.976;2023-07-31T03:28:37;4;4;
66111;PMS7003;52890;52.490;4.976;2023-07-31T03:29:36;4;4;
66111;PMS7003;52890;52.490;4.976;2023-07-31T03:30:37;3;3;
66111;PMS7003;52890;52.490;4.976;2023-07-31T03:31:37;1;1;
66111;PMS7003;52890;52.490;4.976;2023-07-31T03:32:37;4;4;
66111;PMS7003;52890;52.490;4.976;2023-07-31T03:33:37;5;5;
66111;PMS7003;52890;52.490;4.976;2023-07-31T03:34:37;5;5;
66111;PMS7003;52890;52.490;4.976;2023-07-31T03:35:36;7;7;
66111;PMS7003;52890;52.490;4.976;2023-07-31T03:36:36;7;7;
66111;PMS7003;52890;52.490;4.976;2023-07-31T03:37:37;4;4;
66111;PMS7003;52890;52.490;4.976;2023-07-31T03:38:37;2;2;
66111;PMS7003;52890;52.490;4.976;2023-07-31T03:39:36;6;6;
66111;PMS7003;52890;52.490;4.976;2023-07-31T03:40:37;6;6;
66111;PMS7003;52890;52.490;4.976;2023-07-31T03:41:36;3;3;
66111;PMS7003;52890;52.490;4.976;2023-07-31T03:42:36;4;4;
66111;PMS7003;52890;52.490;4.976;2023-07-31T03:43:37;6;6;
66111;PMS7003;52890;52.490;4.976;2023-07-31T03:44:36;6;6;
66111;PMS7003;52890;52.490;4.976;2023-07-31T03:45:36;5;5;
66111;PMS7003;52890;52.490;4.976;2023-07-31T03:46:37;6;6;
66111;PMS7003;52890;52.490;4.976;2023-07-31T03:47:37;2;2;
66111;PMS7003;52890;52.490;4.976;2023-07-31T03:48:37;7;7;
66111;PMS7003;52890;52.490;4.976;2023-07-31T03:49:36;5;5;
66111;PMS7003;52890;52.490;4.976;2023-07-31T03:50:36;7;7;
66111;PMS7003;52890;52.490;4.976;2023-07-31T03:51:36;4;4;
66111;PMS7003;52890;52.490;4.976;2023-07-31T03:52:37;4;4;
66111;PMS7003;52890;52.490;4.976;2023-07-31T03:53:36;3;3;
66111;PMS7003;52890;52.490;4.976;2023-07-31T03:54:37;6;6;
66111;PMS7003;52890;52.490;4.976;2023-07-31T03:55:37;3;3;
66111;PMS7003;52890;52.490;4.976;2023-07-31T03:56:37;5;5;
66111;PMS7003;52890;52.490;4.976;2023-07-31T03:57:37;6;6;
66111;PMS7003;52890;52.490;4.976;2023-07-31T03:58:37;2;2;
66111;PMS7003;52890;52.490;4.976;2023-07-31T03:59:37;3;3;
66111;PMS7003;52890;52.490;4.976;2023-07-31T04:00:37;0;0;
66111;PMS7003;52890;52.490;4.976;2023-07-31T04:01:36;4;4;
66111;PMS7003;52890;52.490;4.976;2023-07-31T04:02:36;3;3;
66111;PMS7003;52890;52.490;4.976;2023-07-31T04:03:37;4;4;
66111;PMS7003;52890;52.490;4.976;2023-07-31T04:04:37;3;3;
66111;PMS7003;52890;52.490;4.976;2023-07-31T04:05:37;4;4;
66111;PMS7003;52890;52.490;4.976;2023-07-31T04:06:37;3;3;
66111;PMS7003;52890;52.490;4.976;2023-07-31T04:07:37;0;0;
66111;PMS7003;52890;52.490;4.976;2023-07-31T04:08:36;6;6;
66111;PMS7003;52890;52.490;4.976;2023-07-31T04:09:36;3;3;
66111;PMS7003;52890;52.490;4.976;2023-07-31T04:10:36;4;4;
66111;PMS7003;52890;52.490;4.976;2023-07-31T04:11:36;4;4;
66111;PMS7003;52890;52.490;4.976;2023-07-31T04:12:37;5;5;
66111;PMS7003;52890;52.490;4.976;2023-07-31T04:13:36;4;4;
66111;PMS7003;52890;52.490;4.976;2023-07-31T04:14:37;3;3;
66111;PMS7003;52890;52.490;4.976;2023-07-31T04:15:36;4;4;
66111;PMS7003;52890;52.490;4.976;2023-07-31T04:16:36;4;4;
66111;PMS7003;52890;52.490;4.976;2023-07-31T04:17:37;6;6;
66111;PMS7003;52890;52.490;4.976;2023-07-31T04:18:37;3;3;
66111;PMS7003;52890;52.490;4.976;2023-07-31T04:19:37;2;2;
66111;PMS7003;52890;52.490;4.976;2023-07-31T04:20:37;2;2;
66111;PMS7003;52890;52.490;4.976;2023-07-31T04:21:37;3;3;
66111;PMS7003;52890;52.490;4.976;2023-07-31T04:22:37;7;7;
66111;PMS7003;52890;52.490;4.976;2023-07-31T04:23:37;6;6;
66111;PMS7003;52890;52.490;4.976;2023-07-31T04:24:37;5;5;
66111;PMS7003;52890;52.490;4.976;2023-07-31T04:25:37;8;8;
66111;PMS7003;52890;52.490;4.976;2023-07-31T04:26:37;5;5;
66111;PMS7003;52890;52.490;4.976;2023-07-31T04:27:36;4;4;
66111;PMS7003;52890;52.490;4.976;2023-07-31T04:28:37;4;4;
66111;PMS7003;52890;52.490;4.976;2023-07-31T04:29:36;2;2;
66111;PMS7003;52890;52.490;4.976;2023-07-31T04:30:37;4;4;
66111;PMS7003;52890;52.490;4.976;2023-07-31T04:31:37;6;6;
66111;PMS7003;52890;52.490;4.976;2023-07-31T04:32:37;3;3;
66111;PMS7003;52890;52.490;4.976;2023-07-31T04:33:36;2;2;
66111;PMS7003;52890;52.490;4.976;2023-07-31T04:34:37;3;3;
66111;PMS7003;52890;52.490;4.976;2023-07-31T04:35:37;2;2;
66111;PMS7003;52890;52.490;4.976;2023-07-31T04:36:37;4;4;
66111;PMS7003;52890;52.490;4.976;2023-07-31T04:37:37;3;3;
66111;PMS7003;52890;52.490;4.976;2023-07-31T04:38:37;4;4;
66111;PMS7003;52890;52.490;4.976;2023-07-31T04:39:37;3;3;
66111;PMS7003;52890;52.490;4.976;2023-07-31T04:40:37;5;5;
66111;PMS7003;52890;52.490;4.976;2023-07-31T04:41:37;4;4;
66111;PMS7003;52890;52.490;4.976;2023-07-31T04:42:37;3;3;
66111;PMS7003;52890;52.490;4.976;2023-07-31T04:43:36;3;3;
66111;PMS7003;52890;52.490;4.976;2023-07-31T04:44:37;4;4;
66111;PMS7003;52890;52.490;4.976;2023-07-31T04:45:37;5;5;
66111;PMS7003;52890;52.490;4.976;2023-07-31T04:46:37;5;5;
66111;PMS7003;52890;52.490;4.976;2023-07-31T04:47:37;2;2;
66111;PMS7003;52890;52.490;4.976;2023-07-31T04:48:37;7;7;
66111;PMS7003;52890;52.490;4.976;2023-07-31T04:49:37;2;2;
66111;PMS7003;52890;52.490;4.976;2023-07-31T04:50:37;8;8;
66111;PMS7003;52890;52.490;4.976;2023-07-31T04:51:37;4;4;
66111;PMS7003;52890;52.490;4.976;2023-07-31T04:52:37;4;4;
66111;PMS7003;52890;52.490;4.976;2023-07-31T04:53:37;4;4;
66111;PMS7003;52890;52.490;4.976;2023-07-31T04:54:37;5;5;
66111;PMS7003;52890;52.490;4.976;2023-07-31T04:55:37;3;3;
66111;PMS7003;52890;52.490;4.976;2023-07-31T04:56:37;3;3;
66111;PMS7003;52890;52.490;4.976;2023-07-31T04:57:37;3;3;
66111;PMS7003;52890;52.490;4.976;2023-07-31T04:58:37;3;3;
66111;PMS7003;52890;52.490;4.976;2023-07-31T04:59:37;3;3;
66111;PMS7003;52890;52.490;4.976;2023-07-31T05:00:37;4;7;
66111;PMS7003;52890;52.490;4.976;2023-07-31T05:01:37;5;5;
66111;PMS7003;52890;52.490;4.976;2023-07-31T05:02:37;2;2;
66111;PMS7003;52890;52.490;4.976;2023-07-31T05:03:37;3;3;
66111;PMS7003;52890;52.490;4.976;2023-07-31T05:04:37;6;6;
66111;PMS7003;52890;52.490;4.976;2023-07-31T05:05:37;6;6;
66111;PMS7003;52890;52.490;4.976;2023-07-31T05:06:37;4;4;
66111;PMS7003;52890;52.490;4.976;2023-07-31T05:07:37;6;6;
66111;PMS7003;52890;52.490;4.976;2023-07-31T05:08:37;5;5;
66111;PMS7003;52890;52.490;4.976;2023-07-31T05:09:37;3;3;
66111;PMS7003;52890;52.490;4.976;2023-07-31T05:10:37;2;2;
66111;PMS7003;52890;52.490;4.976;2023-07-31T05:11:37;3;3;
66111;PMS7003;52890;52.490;4.976;2023-07-31T05:12:37;1;1;
66111;PMS7003;52890;52.490;4.976;2023-07-31T05:13:37;5;5;
66111;PMS7003;52890;52.490;4.976;2023-07-31T05:14:37;4;4;
66111;PMS7003;52890;52.490;4.976;2023-07-31T05:15:37;4;4;
66111;PMS7003;52890;52.490;4.976;2023-07-31T05:16:37;4;4;
66111;PMS7003;52890;52.490;4.976;2023-07-31T05:17:37;1;1;
66111;PMS7003;52890;52.490;4.976;2023-07-31T05:18:37;6;6;
66111;PMS7003;52890;52.490;4.976;2023-07-31T05:19:37;3;3;
66111;PMS7003;52890;52.490;4.976;2023-07-31T05:20:37;2;2;
66111;PMS7003;52890;52.490;4.976;2023-07-31T05:21:37;3;3;
66111;PMS7003;52890;52.490;4.976;2023-07-31T05:22:37;2;2;
66111;PMS7003;52890;52.490;4.976;2023-07-31T05:23:37;3;3;
66111;PMS7003;52890;52.490;4.976;2023-07-31T05:24:37;1;1;
66111;PMS7003;52890;52.490;4.976;2023-07-31T05:25:37;2;2;
66111;PMS7003;52890;52.490;4.976;2023-07-31T05:26:37;3;3;
66111;PMS7003;52890;52.490;4.976;2023-07-31T05:27:37;1;1;
66111;PMS7003;52890;52.490;4.976;2023-07-31T05:28:37;4;4;
66111;PMS7003;52890;52.490;4.976;2023-07-31T05:29:37;0;0;
66111;PMS7003;52890;52.490;4.976;2023-07-31T05:30:37;1;1;
66111;PMS7003;52890;52.490;4.976;2023-07-31T05:31:37;1;1;
66111;PMS7003;52890;52.490;4.976;2023-07-31T05:32:37;3;3;
66111;PMS7003;52890;52.490;4.976;2023-07-31T05:33:37;0;0;
66111;PMS7003;52890;52.490;4.976;2023-07-31T05:34:37;4;4;
66111;PMS7003;52890;52.490;4.976;2023-07-31T05:35:37;1;1;
66111;PMS7003;52890;52.490;4.976;2023-07-31T05:36:37;4;4;
66111;PMS7003;52890;52.490;4.976;2023-07-31T05:37:37;3;3;
66111;PMS7003;52890;52.490;4.976;2023-07-31T05:38:37;1;1;
66111;PMS7003;52890;52.490;4.976;2023-07-31T05:39:37;3;3;
66111;PMS7003;52890;52.490;4.976;2023-07-31T05:40:37;3;3;
66111;PMS7003;52890;52.490;4.976;2023-07-31T05:41:37;1;1;
66111;PMS7003;52890;52.490;4.976;2023-07-31T05:42:37;0;0;
66111;PMS7003;52890;52.490;4.976;2023-07-31T05:43:37;2;2;
66111;PMS7003;52890;52.490;4.976;2023-07-31T05:44:37;0;0;
66111;PMS7003;52890;52.490;4.976;2023-07-31T05:45:37;2;2;
66111;PMS7003;52890;52.490;4.976;2023-07-31T05:46:37;3;3;
66111;PMS7003;52890;52.490;4.976;2023-07-31T05:47:37;1;1;
66111;PMS7003;52890;52.490;4.976;2023-07-31T05:48:37;0;0;
66111;PMS7003;52890;52.490;4.976;2023-07-31T05:49:37;0;0;
66111;PMS7003;52890;52.490;4.976;2023-07-31T05:50:37;1;1;
66111;PMS7003;52890;52.490;4.976;2023-07-31T05:51:37;0;0;
66111;PMS7003;52890;52.490;4.976;2023-07-31T05:52:37;2;2;
66111;PMS7003;52890;52.490;4.976;2023-07-31T05:53:37;3;3;
66111;PMS7003;52890;52.490;4.976;2023-07-31T05:54:37;0;0;
66111;PMS7003;52890;52.490;4.976;2023-07-31T05:55:37;1;1;
66111;PMS7003;52890;52.490;4.976;2023-07-31T05:56:37;1;1;
66111;PMS7003;52890;52.490;4.976;2023-07-31T05:57:37;1;1;
66111;PMS7003;52890;52.490;4.976;2023-07-31T05:58:37;0;0;
66111;PMS7003;52890;52.490;4.976;2023-07-31T05:59:37;0;0;
66111;PMS7003;52890;52.490;4.976;2023-07-31T06:00:37;4;4;
66111;PMS7003;52890;52.490;4.976;2023-07-31T06:01:37;1;1;
66111;PMS7003;52890;52.490;4.976;2023-07-31T06:02:37;0;0;
66111;PMS7003;52890;52.490;4.976;2023-07-31T06:03:37;2;2;
66111;PMS7003;52890;52.490;4.976;2023-07-31T06:04:37;0;0;
66111;PMS7003;52890;52.490;4.976;2023-07-31T06:05:37;1;1;
66111;PMS7003;52890;52.490;4.976;2023-07-31T06:06:37;0;0;
66111;PMS7003;52890;52.490;4.976;2023-07-31T06:07:37;2;2;
66111;PMS7003;52890;52.490;4.976;2023-07-31T06:08:37;0;0;
66111;PMS7003;52890;52.490;4.976;2023-07-31T06:09:37;0;0;
66111;PMS7003;52890;52.490;4.976;2023-07-31T06:10:37;1;1;
66111;PMS7003;52890;52.490;4.976;2023-07-31T06:11:37;2;2;
66111;PMS7003;52890;52.490;4.976;2023-07-31T06:12:37;0;0;
66111;PMS7003;52890;52.490;4.976;2023-07-31T06:13:37;1;1;
66111;PMS7003;52890;52.490;4.976;2023-07-31T06:14:37;0;0;
66111;PMS7003;52890;52.490;4.976;2023-07-31T06:15:37;0;0;
66111;PMS7003;52890;52.490;4.976;2023-07-31T06:16:37;0;0;
66111;PMS7003;52890;52.490;4.976;2023-07-31T06:17:37;0;0;
66111;PMS7003;52890;52.490;4.976;2023-07-31T06:18:37;0;0;
66111;PMS7003;52890;52.490;4.976;2023-07-31T06:19:37;1;1;
66111;PMS7003;52890;52.490;4.976;2023-07-31T06:20:37;0;0;
66111;PMS7003;52890;52.490;4.976;2023-07-31T06:21:37;0;0;
66111;PMS7003;52890;52.490;4.976;2023-07-31T06:22:37;0;0;
66111;PMS7003;52890;52.490;4.976;2023-07-31T06:23:37;0;0;
66111;PMS7003;52890;52.490;4.976;2023-07-31T06:24:37;0;0;
66111;PMS7003;52890;52.490;4.976;2023-07-31T06:25:37;0;0;
66111;PMS7003;52890;52.490;4.976;2023-07-31T06:26:37;0;0;
66111;PMS7003;52890;52.490;4.976;2023-07-31T06:27:37;0;0;
66111;PMS7003;52890;52.490;4.976;2023-07-31T06:28:37;1;1;
66111;PMS7003;52890;52.490;4.976;2023-07-31T06:29:37;0;0;
66111;PMS7003;52890;52.490;4.976;2023-07-31T06:30:37;0;0;
66111;PMS7003;52890;52.490;4.976;2023-07-31T06:31:37;0;0;
66111;PMS7003;52890;52.490;4.976;2023-07-31T06:32:37;1;1;
66111;PMS7003;52890;52.490;4.976;2023-07-31T06:33:37;0;0;
66111;PMS7003;52890;52.490;4.976;2023-07-31T06:34:37;0;0;
66111;PMS7003;52890;52.490;4.976;2023-07-31T06:35:37;0;0;
66111;PMS7003;52890;52.490;4.976;2023-07-31T06:36:37;0;0;
66111;PMS7003;52890;52.490;4.976;2023-07-31T06:37:37;0;0;
66111;PMS7003;52890;52.490;4.976;2023-07-31T06:38:37;0;0;
66111;PMS7003;52890;52.490;4.976;2023-07-31T06:39:37;0;0;
66111;PMS7003;52890;52.490;4.976;2023-07-31T06:40:37;0;0;
66111;PMS7003;52890;52.490;4.976;2023-07-31T06:41:37;0;0;
66111;PMS7003;52890;52.490;4.976;2023-07-31T06:42:37;0;0;
66111;PMS7003;52890;52.490;4.976;2023-07-31T06:43:37;0;0;
66111;PMS7003;52890;52.490;4.976;2023-07-31T06:44:37;0;0;
66111;PMS7003;52890;52.490;4.976;2023-07-31T06:45:37;0;0;
66111;PMS7003;52890;52.490;4.976;2023-07-31T06:46:37;0;0;
66111;PMS7003;52890;52.490;4.976;2023-07-31T06:47:37;0;0;
66111;PMS7003;52890;52.490;4.976;2023-07-31T06:48:37;0;0;
66111;PMS7003;52890;52.490;4.976;2023-07-31T06:49:37;0;0;
66111;PMS7003;52890;52.490;4.976;2023-07-31T06:50:37;0;0;
66111;PMS7003;52890;52.490;4.976;2023-07-31T06:51:37;0;0;
66111;PMS7003;52890;52.490;4.976;2023-07-31T06:52:37;1;1;
66111;PMS7003;52890;52.490;4.976;2023-07-31T06:53:37;0;0;
66111;PMS7003;52890;52.490;4.976;2023-07-31T06:54:37;0;0;
66111;PMS7003;52890;52.490;4.976;2023-07-31T06:55:37;0;0;
66111;PMS7003;52890;52.490;4.976;2023-07-31T06:56:37;0;0;
66111;PMS7003;52890;52.490;4.976;2023-07-31T06:57:37;1;1;
66111;PMS7003;52890;52.490;4.976;2023-07-31T06:58:37;0;0;
66111;PMS7003;52890;52.490;4.976;2023-07-31T06:59:37;0;0;
66111;PMS7003;52890;52.490;4.976;2023-07-31T07:00:37;0;0;
66111;PMS7003;52890;52.490;4.976;2023-07-31T07:01:37;2;2;
66111;PMS7003;52890;52.490;4.976;2023-07-31T07:02:37;0;0;
66111;PMS7003;52890;52.490;4.976;2023-07-31T07:03:37;0;0;
66111;PMS7003;52890;52.490;4.976;2023-07-31T07:04:37;1;1;
66111;PMS7003;52890;52.490;4.976;2023-07-31T07:05:37;1;1;
66111;PMS7003;52890;52.490;4.976;2023-07-31T07:06:37;1;1;
66111;PMS7003;52890;52.490;4.976;2023-07-31T07:07:37;0;0;
66111;PMS7003;52890;52.490;4.976;2023-07-31T07:08:37;0;0;
66111;PMS7003;52890;52.490;4.976;2023-07-31T07:09:37;0;0;
66111;PMS7003;52890;52.490;4.976;2023-07-31T07:10:37;1;1;
66111;PMS7003;52890;52.490;4.976;2023-07-31T07:11:37;0;0;
66111;PMS7003;52890;52.490;4.976;2023-07-31T07:12:37;0;0;
66111;PMS7003;52890;52.490;4.976;2023-07-31T07:13:37;0;0;
66111;PMS7003;52890;52.490;4.976;2023-07-31T07:14:37;0;0;
66111;PMS7003;52890;52.490;4.976;2023-07-31T07:15:37;0;0;
66111;PMS7003;52890;52.490;4.976;2023-07-31T07:16:37;0;0;
66111;PMS7003;52890;52.490;4.976;2023-07-31T07:17:37;0;0;
66111;PMS7003;52890;52.490;4.976;2023-07-31T07:18:37;1;1;
66111;PMS7003;52890;52.490;4.976;2023-07-31T07:19:40;0;0;
66111;PMS7003;52890;52.490;4.976;2023-07-31T07:20:37;0;0;
66111;PMS7003;52890;52.490;4.976;2023-07-31T07:21:37;0;0;
66111;PMS7003;52890;52.490;4.976;2023-07-31T07:22:37;1;1;
66111;PMS7003;52890;52.490;4.976;2023-07-31T07:23:37;0;0;
66111;PMS7003;52890;52.490;4.976;2023-07-31T07:24:37;0;0;
66111;PMS7003;52890;52.490;4.976;2023-07-31T07:25:37;0;0;
66111;PMS7003;52890;52.490;4.976;2023-07-31T07:26:37;0;0;
66111;PMS7003;52890;52.490;4.976;2023-07-31T07:27:37;0;0;
66111;PMS7003;52890;52.490;4.976;2023-07-31T07:28:37;0;0;
66111;PMS7003;52890;52.490;4.976;2023-07-31T07:29:37;0;0;
66111;PMS7003;52890;52.490;4.976;2023-07-31T07:30:37;0;0;
66111;PMS7003;52890;52.490;4.976;2023-07-31T07:31:37;1;1;
66111;PMS7003;52890;52.490;4.976;2023-07-31T07:32:37;1;1;
66111;PMS7003;52890;52.490;4.976;2023-07-31T07:33:37;0;0;
66111;PMS7003;52890;52.490;4.976;2023-07-31T07:34:37;0;0;
66111;PMS7003;52890;52.490;4.976;2023-07-31T07:35:37;0;0;
66111;PMS7003;52890;52.490;4.976;2023-07-31T07:36:37;0;0;
66111;PMS7003;52890;52.490;4.976;2023-07-31T07:37:37;0;0;
66111;PMS7003;52890;52.490;4.976;2023-07-31T07:38:37;1;1;
66111;PMS7003;52890;52.490;4.976;2023-07-31T07:39:37;0;0;
66111;PMS7003;52890;52.490;4.976;2023-07-31T07:40:38;0;0;
66111;PMS7003;52890;52.490;4.976;2023-07-31T07:41:37;0;0;
66111;PMS7003;52890;52.490;4.976;2023-07-31T07:42:37;0;0;
66111;PMS7003;52890;52.490;4.976;2023-07-31T07:43:37;0;0;
66111;PMS7003;52890;52.490;4.976;2023-07-31T07:44:37;0;0;
66111;PMS7003;52890;52.490;4.976;2023-07-31T07:45:37;0;0;
66111;PMS7003;52890;52.490;4.976;2023-07-31T07:46:37;0;0;
66111;PMS7003;52890;52.490;4.976;2023-07-31T07:47:37;0;0;
66111;PMS7003;52890;52.490;4.976;2023-07-31T07:48:37;2;2;
66111;PMS7003;52890;52.490;4.976;2023-07-31T07:49:37;0;0;
66111;PMS7003;52890;52.490;4.976;2023-07-31T07:50:38;0;0;
66111;PMS7003;52890;52.490;4.976;2023-07-31T07:51:37;0;0;
66111;PMS7003;52890;52.490;4.976;2023-07-31T07:52:37;0;0;
66111;PMS7003;52890;52.490;4.976;2023-07-31T07:53:37;1;1;
66111;PMS7003;52890;52.490;4.976;2023-07-31T07:54:37;1;1;
66111;PMS7003;52890;52.490;4.976;2023-07-31T07:55:37;1;1;
66111;PMS7003;52890;52.490;4.976;2023-07-31T07:56:37;0;0;
66111;PMS7003;52890;52.490;4.976;2023-07-31T07:57:37;0;0;
66111;PMS7003;52890;52.490;4.976;2023-07-31T07:58:37;0;0;
66111;PMS7003;52890;52.490;4.976;2023-07-31T07:59:37;0;0;